createdAt,value
2023-05-19T00:00:09.921Z,951.9750
2023-05-19T00:01:11.392Z,951.9883
2023-05-19T00:02:12.748Z,951.9811
2023-05-19T00:03:15.143Z,951.9878
2023-05-19T00:04:16.556Z,951.9855
2023-05-19T00:05:17.988Z,951.9750
2023-05-19T00:06:19.386Z,951.9683
2023-05-19T00:07:20.761Z,951.9661
2023-05-19T00:08:22.131Z,951.9711
2023-05-19T00:09:23.417Z,951.9783
2023-05-19T00:10:24.803Z,951.9678
2023-05-19T00:11:26.260Z,951.9711
2023-05-19T00:12:27.655Z,951.9606
2023-05-19T00:13:28.961Z,951.9528
2023-05-19T00:14:30.381Z,951.9461
2023-05-19T00:15:31.713Z,951.9350
2023-05-19T00:16:33.404Z,951.9211
2023-05-19T00:17:35.989Z,951.9122
2023-05-19T00:18:37.425Z,951.9072
2023-05-19T00:19:39.002Z,951.8872
2023-05-19T00:20:40.388Z,951.8839
2023-05-19T00:21:41.641Z,951.8795
2023-05-19T00:22:42.910Z,951.8689
2023-05-19T00:23:44.379Z,951.8567
2023-05-19T00:24:46.523Z,951.8411
2023-05-19T00:25:47.859Z,951.8228
2023-05-19T00:26:49.131Z,951.8272
2023-05-19T00:27:50.631Z,951.8139
2023-05-19T00:28:52.858Z,951.8022
2023-05-19T00:30:11.527Z,951.7861
2023-05-19T00:30:54.866Z,951.7867
2023-05-19T00:31:56.244Z,951.7650
2023-05-19T00:32:57.609Z,951.7539
2023-05-19T00:33:58.944Z,951.7528
2023-05-19T00:35:00.354Z,951.7522
2023-05-19T00:36:02.354Z,951.7539
2023-05-19T00:37:03.805Z,951.7505
2023-05-19T00:38:05.102Z,951.7572
2023-05-19T00:39:06.424Z,951.7405
2023-05-19T00:40:07.812Z,951.7333
2023-05-19T00:41:10.451Z,951.7150
2023-05-19T00:42:11.961Z,951.7139
2023-05-19T00:43:13.256Z,951.7000
2023-05-19T00:44:16.358Z,951.6950
2023-05-19T00:45:17.961Z,951.6861
2023-05-19T00:46:19.388Z,951.6822
2023-05-19T00:47:20.764Z,951.6800
2023-05-19T00:48:22.101Z,951.6839
2023-05-19T00:49:23.706Z,951.6628
2023-05-19T00:50:25.123Z,951.6567
2023-05-19T00:51:26.502Z,951.6472
2023-05-19T00:52:27.728Z,951.6445
2023-05-19T00:53:29.009Z,951.6255
2023-05-19T00:54:30.410Z,951.6239
2023-05-19T00:55:32.707Z,951.6361
2023-05-19T00:56:34.020Z,951.6311
2023-05-19T00:57:35.299Z,951.6245
2023-05-19T00:58:36.631Z,951.6100
2023-05-19T00:59:38.323Z,951.6061
2023-05-19T01:00:39.800Z,951.5994
2023-05-19T01:01:41.209Z,951.5939
2023-05-19T01:02:42.611Z,951.5867
2023-05-19T01:03:44.025Z,951.5739
2023-05-19T01:04:45.949Z,951.5850
2023-05-19T01:05:47.336Z,951.5811
2023-05-19T01:06:48.789Z,951.5750
2023-05-19T01:07:51.219Z,951.5678
2023-05-19T01:08:52.765Z,951.5505
2023-05-19T01:09:55.050Z,951.5295
2023-05-19T01:10:56.441Z,951.5217
2023-05-19T01:11:57.902Z,951.5328
2023-05-19T01:12:59.334Z,951.5400
2023-05-19T01:14:00.600Z,951.5461
2023-05-19T01:15:02.009Z,951.5400
2023-05-19T01:16:03.663Z,951.5383
2023-05-19T01:17:05.057Z,951.5695
2023-05-19T01:18:06.740Z,951.5706
2023-05-19T01:19:08.332Z,951.5789
2023-05-19T01:20:09.906Z,951.5811
2023-05-19T01:21:11.235Z,951.5811
2023-05-19T01:22:12.650Z,951.5772
2023-05-19T01:23:15.072Z,951.5795
2023-05-19T01:24:16.427Z,951.5850
2023-05-19T01:25:18.725Z,951.5839
2023-05-19T01:26:20.052Z,951.5722
2023-05-19T01:27:21.324Z,951.5700
2023-05-19T01:28:22.623Z,951.5789
2023-05-19T01:30:26.862Z,951.5878
2023-05-19T01:31:28.382Z,951.5907
2023-05-19T01:32:29.665Z,951.5795
2023-05-19T01:33:30.986Z,951.5789
2023-05-19T01:34:32.196Z,951.5639
2023-05-19T02:51:03.167Z,951.5593
2023-05-19T02:51:03.167Z,951.5500
2023-05-19T02:51:03.167Z,951.5628
2023-05-19T02:52:04.873Z,951.3300
2023-05-19T02:53:06.155Z,951.3206
2023-05-19T02:54:07.588Z,951.3150
2023-05-19T02:55:08.878Z,951.3156
2023-05-19T02:56:10.240Z,951.3105
2023-05-19T02:57:11.596Z,951.3089
2023-05-19T02:58:12.910Z,951.3172
2023-05-19T02:59:14.214Z,951.3083
2023-05-19T03:00:15.504Z,951.2972
2023-05-19T03:01:16.890Z,951.2966
2023-05-19T03:02:18.251Z,951.3044
2023-05-19T03:03:19.684Z,951.3111
2023-05-19T03:04:22.122Z,951.2978
2023-05-19T03:05:23.427Z,951.2994
2023-05-19T03:06:24.741Z,951.2822
2023-05-19T03:07:26.154Z,951.2778
2023-05-19T03:08:27.462Z,951.2661
2023-05-19T03:09:28.809Z,951.2539
2023-05-19T03:10:30.586Z,951.2550
2023-05-19T03:11:32.948Z,951.2522
2023-05-19T03:12:34.256Z,951.2383
2023-05-19T03:13:36.505Z,951.2484
2023-05-19T03:14:37.906Z,951.2461
2023-05-19T03:15:39.203Z,951.2511
2023-05-19T03:16:40.780Z,951.2472
2023-05-19T03:17:42.359Z,951.2383
2023-05-19T03:18:44.813Z,951.2311
2023-05-19T03:19:46.208Z,951.2389
2023-05-19T03:20:47.514Z,951.2272
2023-05-19T03:22:50.112Z,951.2433
2023-05-19T03:23:51.364Z,951.2379
2023-05-19T03:24:53.290Z,951.2522
2023-05-19T03:25:54.584Z,951.2516
2023-05-19T03:26:55.946Z,951.2394
2023-05-19T03:27:57.220Z,951.2472
2023-05-19T03:28:58.584Z,951.2689
2023-05-19T03:30:01.072Z,951.2772
2023-05-19T03:31:02.522Z,951.3016
2023-05-19T03:32:03.834Z,951.3028
2023-05-19T03:33:05.455Z,951.3211
2023-05-19T03:34:07.800Z,951.3184
2023-05-19T03:35:09.216Z,951.3384
2023-05-19T03:36:10.523Z,951.3428
2023-05-19T03:37:11.864Z,951.3494
2023-05-19T03:38:13.164Z,951.3378
2023-05-19T03:39:14.509Z,951.3372
2023-05-19T03:40:15.997Z,951.3528
2023-05-19T03:41:17.269Z,951.3622
2023-05-19T03:42:18.787Z,951.3900
2023-05-19T03:43:20.107Z,951.3972
2023-05-19T03:44:22.459Z,951.4161
2023-05-19T03:45:23.764Z,951.4172
2023-05-19T03:46:25.070Z,951.4200
2023-05-19T03:47:26.358Z,951.4350
2023-05-19T03:48:27.682Z,951.4283
2023-05-19T03:49:29.027Z,951.4411
2023-05-19T03:50:30.611Z,951.4389
2023-05-19T03:51:32.100Z,951.4456
2023-05-19T03:52:33.440Z,951.4417
2023-05-19T03:53:34.776Z,951.4294
2023-05-19T03:54:36.119Z,951.4239
2023-05-19T03:55:37.443Z,951.4222
2023-05-19T03:56:38.817Z,951.4017
2023-05-19T03:57:40.197Z,951.4050
2023-05-19T03:58:42.207Z,951.4055
2023-05-19T03:59:43.572Z,951.3883
2023-05-19T04:00:44.928Z,951.3961
2023-05-19T04:01:46.244Z,951.3889
2023-05-19T04:02:47.812Z,951.3900
2023-05-19T04:03:49.191Z,951.3889
2023-05-19T04:04:50.750Z,951.4022
2023-05-19T04:05:52.292Z,951.4117
2023-05-19T04:06:53.552Z,951.4211
2023-05-19T04:07:54.941Z,951.4155
2023-05-19T04:08:56.397Z,951.4344
2023-05-19T04:09:57.751Z,951.4350
2023-05-19T04:10:59.126Z,951.4578
2023-05-19T04:12:00.454Z,951.4539
2023-05-19T04:13:01.841Z,951.4589
2023-05-19T04:14:03.148Z,951.4755
2023-05-19T04:15:04.573Z,951.4811
2023-05-19T04:16:06.910Z,951.4911
2023-05-19T04:17:08.259Z,951.4872
2023-05-19T04:18:09.718Z,951.4989
2023-05-19T04:19:12.164Z,951.5134
2023-05-19T04:20:13.550Z,951.5322
2023-05-19T04:21:14.953Z,951.5344
2023-05-19T04:22:16.224Z,951.5572
2023-05-19T04:23:17.668Z,951.5722
2023-05-19T04:24:18.917Z,951.5856
2023-05-19T04:25:20.325Z,951.6133
2023-05-19T04:26:21.694Z,951.6261
2023-05-19T04:27:23.002Z,951.6222
2023-05-19T04:28:24.401Z,951.6178
2023-05-19T04:29:25.730Z,951.6083
2023-05-19T04:30:27.096Z,951.6039
2023-05-19T04:31:28.426Z,951.6017
2023-05-19T04:32:29.854Z,951.5856
2023-05-19T04:33:31.128Z,951.5778
2023-05-19T04:34:32.517Z,951.5689
2023-05-19T04:35:33.883Z,951.5739
2023-05-19T04:36:35.325Z,951.5850
2023-05-19T04:37:36.630Z,951.5867
2023-05-19T04:38:37.986Z,951.6128
2023-05-19T05:27:53.554Z,951.6155
2023-05-19T05:27:53.554Z,951.6400
2023-05-19T05:27:53.554Z,951.6089
2023-05-19T05:28:25.470Z,951.6800
2023-05-19T05:29:26.872Z,951.6544
2023-05-19T05:30:28.144Z,951.6666
2023-05-19T05:31:29.558Z,951.6628
2023-05-19T05:32:30.912Z,951.6517
2023-05-19T05:33:32.257Z,951.6445
2023-05-19T05:34:34.628Z,951.6322
2023-05-19T05:35:36.013Z,951.6255
2023-05-19T05:36:37.299Z,951.6200
2023-05-19T05:37:38.699Z,951.6111
2023-05-19T05:38:39.974Z,951.6139
2023-05-19T05:39:41.342Z,951.6133
2023-05-19T05:40:42.649Z,951.6155
2023-05-19T05:41:44.079Z,951.6311
2023-05-19T05:42:45.345Z,951.6467
2023-05-19T05:43:46.717Z,951.6461
2023-05-19T05:44:48.007Z,951.6361
2023-05-19T05:45:49.398Z,951.6339
2023-05-19T05:46:50.653Z,951.6517
2023-05-19T05:47:52.041Z,951.6794
2023-05-19T05:48:53.314Z,951.6617
2023-05-19T05:49:54.608Z,951.6778
2023-05-19T05:50:55.937Z,951.6922
2023-05-19T05:52:05.792Z,951.7022
2023-05-19T05:52:57.976Z,951.7006
2023-05-19T05:53:59.239Z,951.6962
2023-05-19T05:55:00.541Z,951.6878
2023-05-19T05:56:01.851Z,951.6950
2023-05-19T05:57:03.206Z,951.7139
2023-05-19T05:58:04.532Z,951.7106
2023-05-19T05:59:05.828Z,951.7100
2023-05-19T06:00:07.111Z,951.7156
2023-05-19T06:01:08.442Z,951.7178
2023-05-19T06:02:09.791Z,951.7139
2023-05-19T06:03:11.232Z,951.6945
2023-05-19T06:04:12.663Z,951.6633
2023-05-19T06:05:14.035Z,951.6483
2023-05-19T06:06:15.358Z,951.6572
2023-05-19T06:07:16.717Z,951.6711
2023-05-19T06:08:18.025Z,951.6861
2023-05-19T06:09:19.398Z,951.7178
2023-05-19T06:10:20.772Z,951.7278
2023-05-19T06:11:22.062Z,951.7266
2023-05-19T06:12:23.410Z,951.7244
2023-05-19T06:13:24.765Z,951.7178
2023-05-19T06:14:25.998Z,951.7067
2023-05-19T06:16:27.935Z,951.6967
2023-05-19T06:17:29.376Z,951.6957
2023-05-19T06:18:30.664Z,951.7122
2023-05-19T06:19:32.052Z,951.7061
2023-05-19T06:20:33.425Z,951.7061
2023-05-19T06:21:35.767Z,951.6866
2023-05-19T06:22:37.055Z,951.6855
2023-05-19T06:23:38.423Z,951.6766
2023-05-19T06:24:39.792Z,951.6672
2023-05-19T06:25:41.055Z,951.6705
2023-05-19T06:26:42.326Z,951.6666
2023-05-19T06:27:43.669Z,951.6655
2023-05-19T06:28:44.926Z,951.6700
2023-05-19T06:29:46.285Z,951.6694
2023-05-19T06:30:47.598Z,951.6855
2023-05-19T06:31:48.938Z,951.6672
2023-05-19T06:32:50.359Z,951.6728
2023-05-19T06:33:51.638Z,951.6917
2023-05-19T06:34:53.043Z,951.7266
2023-05-19T06:35:54.349Z,951.7433
2023-05-19T06:36:55.648Z,951.7739
2023-05-19T06:37:56.977Z,951.7750
2023-05-19T06:38:59.242Z,951.7628
2023-05-19T06:39:58.593Z,951.7455
2023-05-19T06:40:59.866Z,951.7282
2023-05-19T06:42:01.173Z,951.7194
2023-05-19T06:43:02.509Z,951.7250
2023-05-19T06:44:03.801Z,951.7339
2023-05-19T06:45:05.133Z,951.7255
2023-05-19T06:46:06.446Z,951.7439
2023-05-19T06:47:07.833Z,951.7478
2023-05-19T06:48:09.315Z,951.7411
2023-05-19T06:49:10.625Z,951.7739
2023-05-19T06:50:11.941Z,951.7822
2023-05-19T06:51:13.226Z,951.8028
2023-05-19T06:52:14.539Z,951.8128
2023-05-19T06:53:15.819Z,951.8222
2023-05-19T06:54:17.127Z,951.8211
2023-05-19T06:55:18.402Z,951.8066
2023-05-19T06:56:19.745Z,951.8184
2023-05-19T06:57:21.043Z,951.8005
2023-05-19T06:58:22.324Z,951.8139
2023-05-19T06:59:23.659Z,951.8228
2023-05-19T07:00:24.952Z,951.8439
2023-05-19T07:01:26.248Z,951.8639
2023-05-19T07:02:27.613Z,951.8700
2023-05-19T07:03:29.041Z,951.8700
2023-05-19T07:04:30.466Z,951.8750
2023-05-19T07:05:31.791Z,951.8722
2023-05-19T07:06:33.077Z,951.8544
2023-05-19T07:07:34.348Z,951.8655
2023-05-19T07:08:35.737Z,951.8800
2023-05-19T07:09:37.046Z,951.8928
2023-05-19T07:10:38.425Z,951.8867
2023-05-19T07:11:39.710Z,951.9083
2023-05-19T07:12:41.089Z,951.9222
2023-05-19T07:13:42.383Z,951.9266
2023-05-19T07:14:43.753Z,951.9456
2023-05-19T07:15:45.093Z,951.9583
2023-05-19T07:16:46.577Z,951.9556
2023-05-19T07:17:48.009Z,951.9589
2023-05-19T07:18:49.318Z,951.9534
2023-05-19T07:19:50.572Z,951.9511
2023-05-19T07:20:51.913Z,951.9522
2023-05-19T07:21:53.250Z,951.9294
2023-05-19T07:22:54.617Z,951.9255
2023-05-19T07:23:55.968Z,951.9233
2023-05-19T07:24:57.329Z,951.8939
2023-05-19T07:25:58.685Z,951.8589
2023-05-19T07:27:00.117Z,951.8439
2023-05-19T07:28:01.399Z,951.8228
2023-05-19T07:29:02.774Z,951.8033
2023-05-19T07:30:04.089Z,951.7917
2023-05-19T07:31:05.413Z,951.7833
2023-05-19T07:32:06.775Z,951.7889
2023-05-19T07:33:08.199Z,951.7761
2023-05-19T07:34:09.512Z,951.7589
2023-05-19T07:35:10.889Z,951.7650
2023-05-19T07:36:12.165Z,951.7795
2023-05-19T07:37:13.523Z,951.7955
2023-05-19T07:38:14.824Z,951.8033
2023-05-19T07:39:16.200Z,951.8134
2023-05-19T07:40:17.473Z,951.8028
2023-05-19T07:41:18.877Z,951.7806
2023-05-19T07:42:20.170Z,951.7556
2023-05-19T07:43:21.539Z,951.7611
2023-05-19T07:44:22.895Z,951.7639
2023-05-19T07:45:24.326Z,951.7678
2023-05-19T07:46:25.763Z,951.7722
2023-05-19T07:47:27.386Z,951.7728
2023-05-19T07:48:28.688Z,951.7667
2023-05-19T07:49:30.094Z,951.7867
2023-05-19T09:46:03.412Z,951.8011
2023-05-19T09:46:03.412Z,951.8267
2023-05-19T09:46:03.412Z,951.8300
2023-05-19T09:46:58.228Z,951.5400
2023-05-19T09:47:59.533Z,951.5575
2023-05-19T09:49:00.809Z,951.5628
2023-05-19T09:50:02.125Z,951.5639
2023-05-19T09:51:03.425Z,951.5722
2023-05-19T09:52:04.750Z,951.5656
2023-05-19T09:53:06.060Z,951.5689
2023-05-19T09:54:07.333Z,951.5789
2023-05-19T09:55:08.681Z,951.5722
2023-05-19T09:56:10.132Z,951.5722
2023-05-19T09:57:11.595Z,951.5856
2023-05-19T09:58:12.886Z,951.5983
2023-05-19T09:59:14.166Z,951.5739
2023-05-19T10:00:15.458Z,951.6033
2023-05-19T10:01:16.812Z,951.6116
2023-05-19T10:02:18.092Z,951.5883
2023-05-19T10:03:19.385Z,951.5628
2023-05-19T10:04:20.705Z,951.5583
2023-05-19T10:05:22.004Z,951.5217
2023-05-19T10:06:23.284Z,951.5250
2023-05-19T10:07:24.666Z,951.5250
2023-05-19T10:08:25.949Z,951.5361
2023-05-19T10:09:27.263Z,951.5333
2023-05-19T10:10:28.592Z,951.5356
2023-05-19T10:11:29.843Z,951.5361
2023-05-19T10:12:31.134Z,951.5400
2023-05-19T10:13:32.478Z,951.5400
2023-05-19T10:14:33.782Z,951.5189
2023-05-19T10:15:40.751Z,951.5383
2023-05-19T10:16:35.854Z,951.5233
2023-05-19T10:17:37.183Z,951.5306
2023-05-19T10:18:39.876Z,951.5206
2023-05-19T10:19:41.508Z,951.5328
2023-05-19T10:20:43.799Z,951.5505
2023-05-19T10:21:45.245Z,951.5550
2023-05-19T10:22:46.601Z,951.5616
2023-05-19T10:23:48.146Z,951.5455
2023-05-19T10:24:50.181Z,951.5528
2023-05-19T10:25:51.834Z,951.5516
2023-05-19T10:26:53.528Z,951.5328
2023-05-19T10:27:55.214Z,951.5328
2023-05-19T10:28:58.246Z,951.5206
2023-05-19T10:30:00.281Z,951.5011
2023-05-19T10:31:03.315Z,951.4989
2023-05-19T10:32:05.141Z,951.4633
2023-05-19T10:33:06.796Z,951.4450
2023-05-19T10:34:09.079Z,951.4456
2023-05-19T10:35:10.710Z,951.4228
2023-05-19T10:36:13.041Z,951.4434
2023-05-19T10:37:14.993Z,951.4422
2023-05-19T10:38:16.785Z,951.4361
2023-05-19T10:39:18.864Z,951.4305
2023-05-19T10:40:20.884Z,951.4384
2023-05-19T10:41:23.828Z,951.4233
2023-05-19T10:42:25.986Z,951.4172
2023-05-19T10:43:29.068Z,951.3989
2023-05-19T10:44:28.769Z,951.4078
2023-05-19T10:45:34.014Z,951.4012
2023-05-19T10:46:32.910Z,951.3928
2023-05-19T10:47:37.325Z,951.3876
2023-05-19T10:48:37.231Z,951.4189
2023-05-19T10:49:38.913Z,951.4177
2023-05-19T10:50:42.433Z,951.4216
2023-05-19T10:51:41.719Z,951.4128
2023-05-19T10:52:44.765Z,951.4124
2023-05-19T10:53:46.682Z,951.4072
2023-05-19T10:54:48.860Z,951.4067
2023-05-19T10:55:52.938Z,951.3995
2023-05-19T10:56:51.739Z,951.3811
2023-05-19T10:57:53.853Z,951.3876
2023-05-19T10:58:57.030Z,951.4211
2023-05-19T10:59:59.287Z,951.4511
2023-05-19T11:01:01.997Z,951.4589
2023-05-19T11:02:03.882Z,951.4611
2023-05-19T11:03:06.884Z,951.4761
2023-05-19T11:04:08.770Z,951.4850
2023-05-19T11:05:11.022Z,951.4611
2023-05-19T11:06:14.285Z,951.4678
2023-05-19T11:07:16.871Z,951.4705
2023-05-19T11:08:19.110Z,951.4650
2023-05-19T11:09:31.112Z,951.4200
2023-05-19T11:10:21.774Z,951.4056
2023-05-19T11:11:24.289Z,951.3906
2023-05-19T11:12:26.538Z,951.3917
2023-05-19T11:13:29.596Z,951.3989
2023-05-19T11:14:32.773Z,951.4039
2023-05-19T11:15:32.517Z,951.3900
2023-05-19T11:16:37.440Z,951.3724
2023-05-19T11:17:36.296Z,951.4028
2023-05-19T11:18:38.500Z,951.3800
2023-05-19T11:19:40.841Z,951.3394
2023-05-19T11:20:45.119Z,951.3250
2023-05-19T11:21:44.239Z,951.3167
2023-05-19T11:22:46.037Z,951.2830
2023-05-19T11:23:48.466Z,951.2783
2023-05-19T11:24:51.275Z,951.2622
2023-05-19T11:25:52.837Z,951.2756
2023-05-19T11:26:55.893Z,951.2767
2023-05-19T11:27:55.183Z,951.2900
2023-05-19T11:28:59.242Z,951.3065
2023-05-19T11:30:00.010Z,951.2828
2023-05-19T11:30:59.334Z,951.3000
2023-05-19T11:31:59.844Z,951.2888
2023-05-19T11:33:02.295Z,951.2865
2023-05-19T11:34:02.499Z,951.3066
2023-05-19T11:35:05.280Z,951.3206
2023-05-19T11:36:08.282Z,951.3116
2023-05-19T11:37:12.255Z,951.3000
2023-05-19T11:38:10.816Z,951.2850
2023-05-19T11:46:26.256Z,951.2269
2023-05-19T11:46:26.256Z,951.2000
2023-05-19T11:46:26.256Z,951.2200
2023-05-19T11:46:57.236Z,951.1900
2023-05-19T11:56:05.118Z,951.1731
2023-05-19T11:56:05.118Z,951.1894
2023-05-19T11:56:05.118Z,951.2100
2023-05-19T11:56:19.585Z,951.1700
2023-05-19T12:02:21.938Z,951.1900
2023-05-19T12:03:13.446Z,951.2000
2023-05-19T12:04:23.745Z,951.1971
2023-05-19T12:05:15.659Z,951.1935
2023-05-19T12:06:14.462Z,951.1793
2023-05-19T12:07:16.959Z,951.1806
2023-05-19T12:08:24.764Z,951.1839
2023-05-19T12:09:32.792Z,951.1789
2023-05-19T12:12:59.459Z,951.1300
2023-05-19T12:41:21.432Z,951.0600
2023-05-19T12:42:22.782Z,950.9800
2023-05-19T12:46:11.964Z,950.9500
2023-05-19T12:46:32.965Z,950.9379
2023-05-19T12:47:45.597Z,950.9133
2023-05-19T12:48:43.070Z,950.9188
2023-05-19T12:49:33.030Z,950.9042
2023-05-19T12:52:00.422Z,950.8964
2023-05-19T12:52:55.155Z,950.9100
2023-05-19T12:53:49.611Z,950.8910
2023-05-19T12:54:58.041Z,950.8867
2023-05-19T12:55:51.520Z,950.8743
2023-05-19T12:56:55.075Z,950.8473
2023-05-19T12:57:45.420Z,950.8507
2023-05-19T12:58:46.356Z,950.8407
2023-05-19T12:59:48.619Z,950.8300
2023-05-19T13:00:50.307Z,950.8094
2023-05-19T13:01:59.526Z,950.8083
2023-05-19T13:02:56.758Z,950.8044
2023-05-19T13:04:06.535Z,950.8063
2023-05-19T13:05:13.768Z,950.7900
2023-05-19T13:06:15.575Z,950.7727
2023-05-19T13:07:12.887Z,950.7792
2023-05-19T13:08:13.144Z,950.7531
2023-05-19T13:09:29.552Z,950.7650
2023-05-19T13:10:15.787Z,950.7643
2023-05-19T13:11:21.176Z,950.7822
2023-05-19T13:12:30.231Z,950.8113
2023-05-19T13:16:51.759Z,950.7833
2023-05-19T13:16:51.759Z,950.8038
2023-05-19T13:17:05.150Z,950.7800
2023-05-19T13:18:20.586Z,950.7800
2023-05-19T13:19:25.482Z,950.7844
2023-05-19T13:20:45.056Z,950.7871
2023-05-19T13:21:25.846Z,950.7709
2023-05-19T13:22:22.395Z,950.7817
2023-05-19T13:24:24.950Z,950.8000
2023-05-19T13:24:49.779Z,950.7740
2023-05-19T13:40:33.199Z,950.6600
2023-05-19T13:41:17.545Z,950.6500
2023-05-19T13:42:18.912Z,950.6650
2023-05-19T13:43:20.293Z,950.6689
2023-05-19T13:44:21.894Z,950.6589
2023-05-19T13:45:23.294Z,950.6528
2023-05-19T13:46:36.513Z,950.6216
2023-05-19T13:47:25.384Z,950.6300
2023-05-19T13:48:26.880Z,950.6481
2023-05-19T13:49:28.361Z,950.6367
2023-05-19T13:50:29.764Z,950.6356
2023-05-19T13:51:31.158Z,950.6245
2023-05-19T13:52:32.564Z,950.6334
2023-05-19T13:53:34.363Z,950.6372
2023-05-19T13:54:35.723Z,950.6295
2023-05-19T13:55:37.183Z,950.6205
2023-05-19T13:56:38.579Z,950.6061
2023-05-19T13:57:40.688Z,950.6183
2023-05-19T13:58:43.052Z,950.6328
2023-05-19T13:59:57.714Z,950.6434
2023-05-19T14:00:45.370Z,950.6533
2023-05-19T14:01:46.956Z,950.6600
2023-05-19T14:02:48.450Z,950.6572
2023-05-19T14:03:50.024Z,950.6739
2023-05-19T14:04:51.599Z,950.6895
2023-05-19T14:05:53.133Z,950.7050
2023-05-19T14:06:55.677Z,950.6989
2023-05-19T14:07:57.131Z,950.7006
2023-05-19T14:08:58.691Z,950.7089
2023-05-19T14:10:00.131Z,950.6945
2023-05-19T14:11:12.632Z,950.7034
2023-05-19T14:12:04.090Z,950.6945
2023-05-19T14:13:30.376Z,950.6980
2023-05-19T14:14:06.361Z,950.6967
2023-05-19T14:15:09.015Z,950.6856
2023-05-19T14:16:10.466Z,950.7034
2023-05-19T14:17:11.786Z,950.6900
2023-05-19T14:18:13.164Z,950.6866
2023-05-19T14:19:14.502Z,950.6861
2023-05-19T14:20:16.958Z,950.6878
2023-05-19T14:21:18.317Z,950.6789
2023-05-19T14:22:20.687Z,950.6766
2023-05-19T14:23:22.048Z,950.6844
2023-05-19T14:24:23.341Z,950.6794
2023-05-19T14:25:24.730Z,950.6700
2023-05-19T14:26:27.403Z,950.6655
2023-05-19T14:27:26.768Z,950.6511
2023-05-19T14:28:28.157Z,950.6600
2023-05-19T14:29:29.467Z,950.6766
2023-05-19T14:30:30.874Z,950.6328
2023-05-19T14:31:32.154Z,950.6506
2023-05-19T14:32:33.534Z,950.6284
2023-05-19T14:33:35.701Z,950.6205
2023-05-19T14:34:37.203Z,950.6216
2023-05-19T14:35:38.751Z,950.6205
2023-05-19T14:36:40.114Z,950.6205
2023-05-19T14:37:41.419Z,950.6172
2023-05-19T14:38:42.844Z,950.6211
2023-05-19T14:39:44.098Z,950.5928
2023-05-19T14:40:45.454Z,950.6139
2023-05-19T14:41:46.819Z,950.6094
2023-05-19T14:42:48.179Z,950.6133
2023-05-19T14:43:49.518Z,950.6139
2023-05-19T14:44:50.830Z,950.5939
2023-05-19T14:45:52.160Z,950.6000
2023-05-19T14:46:53.547Z,950.6144
2023-05-19T14:47:54.927Z,950.6222
2023-05-19T14:48:56.391Z,950.6183
2023-05-19T14:49:57.647Z,950.6200
2023-05-19T14:50:58.981Z,950.5967
2023-05-19T14:52:00.266Z,950.5967
2023-05-19T14:53:01.633Z,950.6128
2023-05-19T14:54:03.008Z,950.6178
2023-05-19T14:55:04.409Z,950.6234
2023-05-19T14:56:06.543Z,950.6356
2023-05-19T14:57:07.827Z,950.6350
2023-05-19T14:58:19.729Z,950.6183
2023-05-19T14:59:09.889Z,950.6222
2023-05-19T15:00:11.182Z,950.6081
2023-05-19T15:01:12.570Z,950.6234
2023-05-19T15:02:13.893Z,950.6272
2023-05-19T15:03:15.311Z,950.6334
2023-05-19T15:04:16.736Z,950.6439
2023-05-19T15:05:18.075Z,950.6216
2023-05-19T15:06:19.465Z,950.6172
2023-05-19T15:07:20.823Z,950.6078
2023-05-19T15:08:22.124Z,950.6000
2023-05-19T15:09:23.477Z,950.5967
2023-05-19T15:10:24.820Z,950.5839
2023-05-19T15:11:26.141Z,950.5622
2023-05-19T15:12:27.435Z,950.5605
2023-05-19T15:13:28.760Z,950.5289
2023-05-19T15:14:31.068Z,950.5394
2023-05-19T15:15:30.341Z,950.5300
2023-05-19T15:16:31.666Z,950.5071
2023-05-19T15:17:32.969Z,950.5200
2023-05-19T15:18:34.241Z,950.5344
2023-05-19T15:19:35.611Z,950.5278
2023-05-19T15:20:36.935Z,950.5339
2023-05-19T15:21:38.220Z,950.5439
2023-05-19T15:22:39.556Z,950.5356
2023-05-19T15:23:40.837Z,950.5172
2023-05-19T15:24:42.208Z,950.5483
2023-05-19T15:25:43.473Z,950.5689
2023-05-19T15:26:44.765Z,950.5761
2023-05-19T15:27:46.091Z,950.5834
2023-05-19T15:28:47.841Z,950.5839
2023-05-19T15:29:49.111Z,950.5711
2023-05-19T15:30:50.455Z,950.5589
2023-05-19T15:31:51.803Z,950.5433
2023-05-19T15:32:53.180Z,950.5550
2023-05-19T15:33:54.497Z,950.5722
2023-05-19T15:34:56.050Z,950.5684
2023-05-19T15:35:57.735Z,950.5656
2023-05-19T15:36:59.020Z,950.5394
2023-05-19T15:38:00.352Z,950.5422
2023-05-19T15:39:01.695Z,950.5339
2023-05-19T15:40:03.984Z,950.5489
2023-05-19T15:41:05.609Z,950.5605
2023-05-19T15:42:06.952Z,950.5745
2023-05-19T15:43:08.205Z,950.5745
2023-05-19T15:44:09.483Z,950.5761
2023-05-19T15:45:10.784Z,950.5706
2023-05-19T15:46:12.072Z,950.5722
2023-05-19T15:47:13.391Z,950.5439
2023-05-19T15:48:14.685Z,950.5394
2023-05-19T15:49:15.935Z,950.5550
2023-05-19T15:50:17.290Z,950.5661
2023-05-19T15:51:18.601Z,950.5623
2023-05-19T15:52:19.864Z,950.5594
2023-05-19T15:53:21.161Z,950.5616
2023-05-19T15:54:22.464Z,950.5555
2023-05-19T15:55:23.756Z,950.5372
2023-05-19T15:56:25.069Z,950.5361
2023-05-19T15:57:26.472Z,950.5361
2023-05-19T15:58:27.751Z,950.5311
2023-05-19T15:59:29.043Z,950.5161
2023-05-19T16:00:30.345Z,950.5172
2023-05-19T16:01:31.655Z,950.5045
2023-05-19T16:02:32.996Z,950.4966
2023-05-19T16:03:34.361Z,950.4950
2023-05-19T16:04:35.739Z,950.5005
2023-05-19T16:05:37.048Z,950.4894
2023-05-19T16:06:38.327Z,950.4839
2023-05-19T16:07:39.620Z,950.4678
2023-05-19T16:08:40.964Z,950.4595
2023-05-19T16:09:42.260Z,950.4644
2023-05-19T16:10:43.526Z,950.4400
2023-05-19T16:11:44.830Z,950.4161
2023-05-19T16:12:46.147Z,950.3972
2023-05-19T16:13:47.426Z,950.3594
2023-05-19T16:14:48.807Z,950.3539
2023-05-19T16:15:50.113Z,950.3550
2023-05-19T16:16:51.503Z,950.3284
2023-05-19T16:17:52.810Z,950.3145
2023-05-19T16:18:54.197Z,950.3167
2023-05-19T16:19:55.431Z,950.3189
2023-05-19T16:20:56.718Z,950.3139
2023-05-19T16:21:58.025Z,950.2939
2023-05-19T16:22:59.343Z,950.2994
2023-05-19T16:24:00.693Z,950.3005
2023-05-19T16:25:01.941Z,950.3178
2023-05-19T16:26:03.242Z,950.3089
2023-05-19T16:27:04.550Z,950.3228
2023-05-19T16:28:05.907Z,950.3256
2023-05-19T16:29:07.172Z,950.3395
2023-05-19T16:30:08.494Z,950.3439
2023-05-19T16:31:09.760Z,950.3350
2023-05-19T16:32:11.083Z,950.3566
2023-05-19T16:33:12.444Z,950.3628
2023-05-19T16:34:13.734Z,950.3605
2023-05-19T16:35:15.048Z,950.3456
2023-05-19T16:36:16.304Z,950.3500
2023-05-19T16:37:17.639Z,950.3311
2023-05-19T16:38:18.914Z,950.3195
2023-05-19T16:39:20.242Z,950.3167
2023-05-19T16:40:21.497Z,950.3200
2023-05-19T16:41:22.802Z,950.3245
2023-05-19T16:42:24.102Z,950.3239
2023-05-19T16:43:25.432Z,950.3111
2023-05-19T16:44:26.689Z,950.3122
2023-05-19T16:45:28.039Z,950.3055
2023-05-19T16:46:31.300Z,950.3167
2023-05-19T16:47:29.712Z,950.3222
2023-05-19T16:48:30.967Z,950.3100
2023-05-19T16:49:32.239Z,950.3134
2023-05-19T16:50:33.751Z,950.3044
2023-05-19T16:51:35.219Z,950.3000
2023-05-19T16:52:36.555Z,950.2872
2023-05-19T16:53:37.830Z,950.2839
2023-05-19T16:54:39.136Z,950.2750
2023-05-19T16:55:40.582Z,950.2411
2023-05-19T16:56:41.926Z,950.2466
2023-05-19T16:57:43.182Z,950.2472
2023-05-19T16:58:44.661Z,950.2156
2023-05-19T16:59:45.912Z,950.2039
2023-05-19T17:00:47.233Z,950.2050
2023-05-19T17:01:48.550Z,950.1917